createdAt,value
2022-12-23T00:04:08.866Z,5.40
2022-12-23T00:09:11.015Z,5.36
2022-12-23T00:14:31.857Z,5.45
2022-12-23T00:19:33.995Z,5.45
2022-12-23T00:24:36.142Z,5.42
2022-12-23T00:29:38.263Z,5.49
2022-12-23T00:34:40.437Z,5.39
2022-12-23T00:40:06.196Z,5.37
2022-12-23T00:45:18.349Z,5.45
2022-12-23T00:50:20.494Z,5.50
2022-12-23T00:55:22.976Z,5.47
2022-12-23T01:00:45.307Z,5.53
2022-12-23T01:05:47.509Z,5.58
2022-12-23T01:10:49.836Z,5.56
2022-12-23T01:15:52.009Z,5.54
2022-12-23T01:20:54.153Z,5.53
2022-12-23T01:26:00.834Z,5.63
2022-12-23T01:31:05.223Z,5.71
2022-12-23T01:36:09.501Z,5.70
2022-12-23T01:41:42.226Z,5.74
2022-12-23T01:46:44.432Z,5.69
2022-12-23T01:51:46.682Z,5.75
2022-12-23T01:56:48.832Z,5.72
2022-12-23T02:02:09.631Z,5.71
2022-12-23T02:07:32.020Z,5.87
2022-12-23T02:13:07.574Z,5.61
2022-12-23T02:18:09.709Z,5.53
2022-12-23T02:23:46.208Z,5.37
2022-12-23T02:29:06.633Z,5.40
2022-12-23T02:34:39.235Z,5.13
2022-12-23T02:39:59.627Z,4.90
2022-12-23T02:45:23.468Z,4.85
2022-12-23T02:50:32.776Z,4.99
2022-12-23T02:55:39.036Z,5.00
2022-12-23T03:00:43.131Z,5.04
2022-12-23T03:05:47.772Z,4.94
2022-12-23T03:11:07.400Z,4.87
2022-12-23T03:16:20.961Z,4.81
2022-12-23T03:21:35.944Z,4.84
2022-12-23T03:27:12.852Z,4.74
2022-12-23T03:32:17.211Z,4.71
2022-12-23T03:37:22.652Z,4.76
2022-12-23T03:42:35.900Z,4.73
2022-12-23T03:47:48.559Z,4.68
2022-12-23T03:53:15.271Z,4.63
2022-12-23T03:58:29.808Z,4.62
2022-12-23T04:03:40.294Z,4.58
2022-12-23T04:08:44.631Z,4.58
2022-12-23T04:13:48.577Z,4.54
2022-12-23T04:18:51.028Z,4.47
2022-12-23T04:23:53.174Z,4.53
2022-12-23T04:28:55.360Z,4.75
2022-12-23T04:33:57.764Z,4.66
2022-12-23T04:38:59.954Z,4.44
2022-12-23T04:44:02.108Z,4.51
2022-12-23T04:49:04.261Z,4.51
2022-12-23T04:54:06.377Z,4.44
2022-12-23T04:59:09.799Z,4.52
2022-12-23T05:04:12.118Z,4.43
2022-12-23T05:09:14.336Z,4.38
2022-12-23T05:14:16.595Z,4.28
2022-12-23T05:19:18.723Z,4.17
2022-12-23T05:24:20.869Z,4.22
2022-12-23T05:29:22.996Z,4.15
2022-12-23T05:34:25.177Z,4.06
2022-12-23T05:39:27.323Z,4.15
2022-12-23T05:44:29.607Z,4.07
2022-12-23T05:49:31.744Z,4.12
2022-12-23T05:54:33.898Z,4.14
2022-12-23T05:59:36.069Z,4.18
2022-12-23T06:04:38.214Z,4.31
2022-12-23T06:09:40.377Z,4.27
2022-12-23T06:14:42.509Z,4.14
2022-12-23T06:19:44.958Z,4.12
2022-12-23T06:24:47.575Z,4.05
2022-12-23T06:29:49.704Z,3.99
2022-12-23T06:34:53.399Z,4.02
2022-12-23T06:39:55.877Z,3.95
2022-12-23T06:44:58.088Z,3.70
2022-12-23T06:50:00.311Z,3.72
2022-12-23T06:55:02.518Z,3.55
2022-12-23T07:00:05.551Z,3.55
2022-12-23T07:05:08.055Z,3.54
2022-12-23T07:10:10.401Z,3.66
2022-12-23T07:15:12.651Z,3.77
2022-12-23T07:20:15.216Z,3.71
2022-12-23T07:25:17.392Z,3.63
2022-12-23T07:30:19.559Z,3.59
2022-12-23T07:35:21.700Z,3.61
2022-12-23T07:40:24.998Z,3.76
2022-12-23T07:45:29.230Z,4.06
2022-12-23T07:50:31.452Z,3.94
2022-12-23T07:55:33.645Z,3.76
2022-12-23T08:00:35.786Z,3.71
2022-12-23T08:05:38.011Z,3.63
2022-12-23T08:10:47.736Z,3.70
2022-12-23T08:15:55.184Z,3.62
2022-12-23T08:20:59.635Z,3.81
2022-12-23T08:26:09.670Z,3.99
2022-12-23T08:31:14.930Z,4.13
2022-12-23T08:36:23.169Z,3.91
2022-12-23T08:41:28.934Z,3.79
2022-12-23T08:46:31.118Z,3.72
2022-12-23T08:51:33.758Z,3.67
2022-12-23T08:56:39.933Z,3.75
2022-12-23T09:01:42.919Z,3.88
2022-12-23T09:06:45.666Z,3.89
2022-12-23T09:11:47.827Z,4.03
2022-12-23T09:16:52.487Z,4.13
2022-12-23T09:21:54.996Z,3.98
2022-12-23T09:26:57.213Z,4.03
2022-12-23T09:31:59.889Z,3.99
2022-12-23T09:37:02.995Z,4.30
2022-12-23T09:42:32.543Z,4.38
2022-12-23T09:47:35.558Z,4.15
2022-12-23T09:52:49.937Z,4.15
2022-12-23T09:58:01.198Z,3.96
2022-12-23T10:03:34.803Z,4.02
2022-12-23T10:08:47.388Z,3.78
2022-12-23T10:13:58.737Z,3.87
2022-12-23T10:19:20.927Z,3.71
2022-12-23T10:24:33.733Z,4.02
2022-12-23T10:29:37.256Z,3.90
2022-12-23T10:34:49.378Z,3.86
2022-12-23T10:40:00.248Z,3.94
2022-12-23T10:45:24.276Z,4.00
2022-12-23T10:50:38.679Z,4.09
2022-12-23T10:55:40.996Z,4.17
2022-12-23T11:00:49.657Z,4.07
2022-12-23T11:05:53.549Z,4.14
2022-12-23T11:10:56.102Z,4.31
2022-12-23T11:16:18.745Z,4.29
2022-12-23T11:21:21.285Z,4.59
2022-12-23T11:26:24.839Z,4.49
2022-12-23T11:31:32.620Z,4.49
2022-12-23T11:36:35.383Z,4.35
2022-12-23T11:41:44.372Z,4.41
2022-12-23T11:47:22.254Z,4.54
2022-12-23T11:52:27.711Z,4.70
2022-12-23T11:57:44.611Z,4.63
2022-12-23T12:02:50.857Z,4.88
2022-12-23T12:07:58.846Z,5.02
2022-12-23T12:13:20.243Z,4.83
2022-12-23T12:18:23.980Z,4.92
2022-12-23T12:23:43.831Z,5.00
2022-12-23T12:28:52.118Z,5.25
2022-12-23T12:34:09.777Z,5.15
2022-12-23T12:39:33.749Z,5.33
2022-12-23T12:45:25.042Z,5.35
2022-12-23T12:50:33.144Z,5.03
2022-12-23T12:55:42.415Z,5.24
2022-12-23T13:01:19.932Z,5.38
2022-12-23T13:06:28.002Z,5.43
2022-12-23T13:11:50.740Z,5.53
2022-12-23T13:16:58.281Z,5.55
2022-12-23T13:22:09.642Z,5.46
2022-12-23T13:27:17.209Z,5.62
2022-12-23T13:32:40.554Z,5.70
2022-12-23T13:37:56.222Z,5.58
2022-12-23T13:43:06.333Z,5.46
2022-12-23T13:48:41.064Z,5.32
2022-12-23T13:54:20.345Z,5.37
2022-12-23T13:59:22.527Z,5.54
2022-12-23T14:04:54.048Z,5.46
2022-12-23T14:10:21.766Z,5.86
2022-12-23T14:15:26.827Z,5.93
2022-12-23T14:20:47.657Z,5.81
2022-12-23T14:26:09.461Z,5.63
2022-12-23T14:31:37.276Z,5.59
2022-12-23T14:36:39.669Z,5.62
2022-12-23T14:41:56.528Z,5.59
2022-12-23T14:47:03.731Z,5.75
2022-12-23T14:52:44.781Z,5.79
2022-12-23T14:57:47.894Z,5.87
2022-12-23T15:02:57.248Z,5.66
2022-12-23T15:07:59.518Z,5.73
2022-12-23T15:13:03.192Z,5.79
2022-12-23T15:18:11.954Z,5.95
2022-12-23T15:23:17.395Z,5.85
2022-12-23T15:28:23.649Z,5.84
2022-12-23T15:38:55.072Z,5.82
2022-12-23T15:44:01.645Z,5.86
2022-12-23T15:49:05.335Z,5.88
2022-12-23T15:54:08.788Z,5.91
2022-12-23T15:59:23.547Z,6.05
2022-12-23T16:04:29.408Z,5.95
2022-12-23T16:09:35.634Z,6.09
2022-12-23T16:14:40.244Z,6.17
2022-12-23T16:19:48.126Z,6.18
2022-12-23T16:24:56.608Z,6.05
2022-12-23T16:30:02.621Z,6.11
2022-12-23T16:35:12.338Z,6.07
2022-12-23T16:40:14.636Z,6.06
2022-12-23T16:45:16.859Z,5.95
2022-12-23T16:50:19.211Z,5.90
2022-12-23T16:55:21.474Z,5.76
2022-12-23T17:00:23.909Z,5.68
2022-12-23T17:05:26.161Z,5.76
2022-12-23T17:10:28.354Z,5.67
2022-12-23T17:15:30.591Z,5.70
2022-12-23T17:20:32.727Z,5.96
2022-12-23T17:25:34.929Z,5.67
2022-12-23T17:30:37.668Z,5.89
2022-12-23T17:35:39.826Z,5.86
2022-12-23T17:40:45.034Z,5.87
2022-12-23T17:45:51.193Z,5.84
2022-12-23T17:50:53.558Z,5.68
2022-12-23T17:55:55.853Z,5.81
2022-12-23T18:00:58.142Z,5.82
2022-12-23T18:06:02.281Z,5.96
2022-12-23T18:11:06.055Z,5.81
2022-12-23T18:16:12.503Z,5.72
2022-12-23T18:21:20.783Z,5.67
2022-12-23T18:26:23.096Z,5.63
2022-12-23T18:31:27.270Z,5.60
2022-12-23T18:36:33.309Z,5.60
2022-12-23T18:41:35.654Z,5.73
2022-12-23T18:46:37.823Z,5.70
2022-12-23T18:51:40.131Z,5.85
2022-12-23T18:56:42.850Z,5.77
2022-12-23T19:01:45.304Z,5.92
2022-12-23T19:06:47.554Z,5.86
2022-12-23T19:11:53.043Z,5.72
2022-12-23T19:16:55.391Z,5.86
2022-12-23T19:21:58.134Z,5.85
2022-12-23T19:27:16.356Z,5.75
2022-12-23T19:32:22.877Z,5.93
2022-12-23T19:37:25.220Z,5.96
2022-12-23T19:42:27.379Z,5.86
2022-12-23T19:47:29.580Z,5.81
2022-12-23T19:52:31.979Z,5.88
2022-12-23T19:57:34.753Z,5.91
2022-12-23T20:02:37.244Z,5.99
2022-12-23T20:07:39.507Z,5.99
2022-12-23T20:12:42.703Z,6.00
2022-12-23T20:17:44.891Z,5.83
2022-12-23T20:22:47.143Z,5.66
2022-12-23T20:27:49.307Z,5.64
2022-12-23T20:32:51.523Z,5.70
2022-12-23T20:37:53.729Z,5.56
2022-12-23T20:42:55.916Z,5.65
2022-12-23T20:47:58.149Z,5.79
2022-12-23T20:53:00.389Z,5.81
2022-12-23T20:58:22.595Z,5.80
2022-12-23T21:03:24.849Z,5.85
2022-12-23T21:08:27.139Z,5.80
2022-12-23T21:13:29.372Z,5.98
2022-12-23T21:18:31.964Z,6.01
2022-12-23T21:23:38.203Z,5.94
2022-12-23T21:28:42.050Z,5.98
2022-12-23T21:33:45.612Z,5.97
2022-12-23T21:38:48.974Z,5.90
2022-12-23T21:43:51.711Z,5.94
2022-12-23T21:48:58.211Z,5.83
2022-12-23T21:54:01.157Z,5.94
2022-12-23T21:59:10.180Z,5.98
2022-12-23T22:04:12.481Z,5.84
2022-12-23T22:09:19.583Z,5.84
2022-12-23T22:14:21.898Z,5.87
2022-12-23T22:19:24.072Z,5.86
2022-12-23T22:24:26.537Z,5.75
2022-12-23T22:29:28.829Z,5.36
2022-12-23T22:34:31.034Z,5.38
2022-12-23T22:39:33.224Z,5.39
2022-12-23T22:44:35.477Z,5.31
2022-12-23T22:49:37.741Z,5.49
2022-12-23T22:54:39.964Z,5.58
2022-12-23T22:59:42.097Z,5.72
2022-12-23T23:04:44.253Z,5.76
2022-12-23T23:09:46.464Z,5.55
2022-12-23T23:14:54.414Z,5.65
2022-12-23T23:19:56.590Z,5.76
2022-12-23T23:24:58.768Z,5.78
2022-12-23T23:30:00.938Z,5.85
2022-12-23T23:35:08.845Z,5.73
2022-12-23T23:40:13.174Z,5.88
2022-12-23T23:45:15.568Z,5.78
2022-12-23T23:50:17.962Z,5.99
2022-12-23T23:55:20.172Z,5.99
